SPZO

Details ICAO SPZO (CUZ)
Name TENIENTE ALEJANDRO VELASCO ASTETE INTL
Region Peru
Timezone America/Lima (UTC-5.0)
Plans Departing 79
Arriving 114
Stats Elevation 10,860 ft / 3,310 m (AMSL)
Location -13.535722° -71.938780°
Runways 1
Magnetic Variation 5.555° W
Sunrise 2017-12-14 10:16:27 UTC / 2017-12-14 05:16:27 Local
Sunset 2017-12-14 23:11:24 UTC / 2017-12-14 18:11:24 Local
Advertisement - Login to hide

Runways

ID Width Length Bearing (true) Bearing (mag) Surface Threshold Offset Overrun Length
10 148 ft / 45 m 11,135 ft / 3,394 m 95.97° 101.52° Asphalt 0 ft / 0 m 215 ft / 66 m
28 148 ft / 45 m 11,135 ft / 3,394 m 275.96° 281.51° Asphalt 0 ft / 0 m 200 ft / 61 m

Map

Weather


0- 5 10 15 20 25 30 35+ Temperature / ° C

Clouds and Precipitation
Forecast for 2017-12-14 18:00 UTC. Updated 29 minutes ago

Ground ~20,000 ft ~40,000 ft Winds

METAR

SPZO 141500Z VRB03KT 9999 FEW046 SCT100 19/03 Q1032 NOSIG RMK BIRD HAZARD RWY 28 PP000

TAF

Not found

Frequencies

Recorded 127.00 MHz ATIS
Tower 118.10 MHz CUSCO TWR
Ground 121.90 MHz GND
Approach 120.60 MHz CUSCO APP
Warning: Do not use this data for real-world aviation or navigation. No guarantee of current accuracy is given.